createdAt,value
2017-11-13T00:08:48.000Z,24.36
2017-11-13T00:18:48.000Z,24.37
2017-11-13T00:28:48.000Z,24.18
2017-11-13T00:38:48.000Z,24.33
2017-11-13T00:48:48.000Z,24.26
2017-11-13T00:58:48.000Z,24.27
2017-11-13T01:08:48.000Z,24.29
2017-11-13T01:18:48.000Z,24.12
2017-11-13T01:28:48.000Z,24.06
2017-11-13T01:38:48.000Z,24.16
2017-11-13T01:48:48.000Z,24.01
2017-11-13T01:58:48.000Z,24.09
2017-11-13T02:08:48.000Z,24.06
2017-11-13T02:18:48.000Z,23.99
2017-11-13T02:28:48.000Z,24.02
2017-11-13T02:38:48.000Z,23.94
2017-11-13T02:48:48.000Z,23.93
2017-11-13T02:58:48.000Z,23.88
2017-11-13T03:08:48.000Z,23.82
2017-11-13T03:18:48.000Z,23.8
2017-11-13T03:28:48.000Z,23.74
2017-11-13T03:38:48.000Z,23.66
2017-11-13T03:48:48.000Z,23.71
2017-11-13T03:58:48.000Z,23.69
2017-11-13T04:08:48.000Z,23.62
2017-11-13T04:18:48.000Z,23.63
2017-11-13T04:28:48.000Z,23.55
2017-11-13T04:38:48.000Z,23.55
2017-11-13T04:48:48.000Z,23.47
2017-11-13T04:58:48.000Z,23.41
2017-11-13T05:08:49.000Z,23.44
2017-11-13T05:18:49.000Z,23.41
2017-11-13T05:28:49.000Z,23.4
2017-11-13T05:38:49.000Z,23.44
2017-11-13T05:48:49.000Z,23.38
2017-11-13T05:58:49.000Z,23.4
2017-11-13T06:08:49.000Z,23.36
2017-11-13T06:18:49.000Z,23.43
2017-11-13T06:28:49.000Z,23.42
2017-11-13T06:38:49.000Z,23.41
2017-11-13T06:48:49.000Z,23.46
2017-11-13T06:58:49.000Z,23.53
2017-11-13T07:08:49.000Z,23.52
2017-11-13T07:18:49.000Z,23.64
2017-11-13T07:28:49.000Z,23.47
2017-11-13T07:38:49.000Z,23.64
2017-11-13T07:48:49.000Z,23.6
2017-11-13T07:58:50.000Z,23.62
2017-11-13T08:08:49.000Z,23.67
2017-11-13T08:18:49.000Z,23.61
2017-11-13T08:28:49.000Z,23.68
2017-11-13T08:38:49.000Z,23.73
2017-11-13T08:48:49.000Z,23.7
2017-11-13T08:58:49.000Z,23.64
2017-11-13T09:08:49.000Z,23.61
2017-11-13T09:18:49.000Z,23.7
2017-11-13T09:28:49.000Z,23.64
2017-11-13T09:38:49.000Z,23.81
2017-11-13T09:48:49.000Z,24.15
2017-11-13T09:58:49.000Z,24.55
2017-11-13T10:08:49.000Z,24.83
2017-11-13T10:18:49.000Z,24.5
2017-11-13T10:28:49.000Z,24.49
2017-11-13T10:38:49.000Z,24.88
2017-11-13T10:48:49.000Z,24.96
2017-11-13T10:58:49.000Z,24.98
2017-11-13T11:08:49.000Z,25.02
2017-11-13T11:18:49.000Z,24.99
2017-11-13T11:28:49.000Z,24.94
2017-11-13T11:38:49.000Z,25.03
2017-11-13T11:48:49.000Z,25
2017-11-13T11:58:49.000Z,25.01
2017-11-13T12:08:49.000Z,25.01
2017-11-13T12:18:49.000Z,24.96
2017-11-13T12:28:49.000Z,25.09
2017-11-13T12:38:49.000Z,25.11
2017-11-13T12:48:49.000Z,25.11
2017-11-13T12:58:49.000Z,25.11
2017-11-13T13:08:49.000Z,25.17
2017-11-13T13:18:49.000Z,25.13
2017-11-13T13:28:50.000Z,25.13
2017-11-13T13:38:50.000Z,25.16
2017-11-13T13:48:50.000Z,25.2
2017-11-13T13:58:50.000Z,25.19
2017-11-13T14:08:50.000Z,25.09
2017-11-13T14:18:50.000Z,25.17
2017-11-13T14:28:50.000Z,25.09
2017-11-13T14:38:50.000Z,24.99
2017-11-13T14:48:50.000Z,24.98
2017-11-13T14:58:50.000Z,24.94
2017-11-13T15:08:50.000Z,24.86
2017-11-13T15:18:50.000Z,24.9
2017-11-13T15:28:50.000Z,24.85
2017-11-13T15:38:50.000Z,24.82
2017-11-13T15:48:50.000Z,24.82
2017-11-13T15:58:50.000Z,24.84
2017-11-13T16:08:52.000Z,24.73
2017-11-13T16:18:50.000Z,24.74
2017-11-13T16:28:50.000Z,24.69
2017-11-13T16:38:50.000Z,24.62
2017-11-13T16:48:50.000Z,24.67
2017-11-13T16:58:50.000Z,24.65
2017-11-13T17:08:50.000Z,24.72
2017-11-13T17:18:50.000Z,24.62
2017-11-13T17:28:50.000Z,24.61
2017-11-13T17:38:50.000Z,24.62
2017-11-13T17:48:50.000Z,24.66
2017-11-13T17:58:50.000Z,24.55
2017-11-13T18:08:50.000Z,24.54
2017-11-13T18:18:50.000Z,24.61
2017-11-13T18:28:50.000Z,24.73
2017-11-13T18:38:50.000Z,24.9
2017-11-13T18:48:50.000Z,24.81
2017-11-13T18:58:50.000Z,24.93
2017-11-13T19:08:50.000Z,24.83
2017-11-13T19:18:50.000Z,24.79
2017-11-13T19:28:50.000Z,24.86
2017-11-13T19:38:50.000Z,24.71
2017-11-13T19:48:50.000Z,24.67
2017-11-13T19:58:50.000Z,24.64
2017-11-13T20:08:51.000Z,24.86
2017-11-13T20:18:50.000Z,24.48
2017-11-13T20:28:50.000Z,24.49
2017-11-13T20:38:50.000Z,24.45
2017-11-13T20:48:50.000Z,24.43
2017-11-13T20:58:50.000Z,24.44
2017-11-13T21:08:50.000Z,24.43
2017-11-13T21:18:50.000Z,24.41
2017-11-13T21:28:50.000Z,24.46
2017-11-13T21:38:51.000Z,24.52
2017-11-13T21:48:51.000Z,24.5
2017-11-13T21:58:51.000Z,24.46
2017-11-13T22:08:51.000Z,24.48
2017-11-13T22:18:51.000Z,24.57
2017-11-13T22:28:53.000Z,24.44
2017-11-13T22:38:51.000Z,24.52
2017-11-13T22:48:51.000Z,24.41
2017-11-13T22:58:51.000Z,24.38
2017-11-13T23:08:51.000Z,24.44
2017-11-13T23:18:51.000Z,24.41
2017-11-13T23:28:51.000Z,24.26
2017-11-13T23:38:51.000Z,24.12
2017-11-13T23:48:51.000Z,24.17
2017-11-13T23:58:51.000Z,24.1
